sensor_id;sensor_type;location;lat;lon;timestamp;P1;durP1;ratioP1;P2;durP2;ratioP2
37945;SDS011;23769;52.478;13.448;2022-10-17T00:00:52;11.90;;;7.85;;
37945;SDS011;23769;52.478;13.448;2022-10-17T00:03:19;11.98;;;7.32;;
37945;SDS011;23769;52.478;13.448;2022-10-17T00:05:46;11.50;;;7.32;;
37945;SDS011;23769;52.478;13.448;2022-10-17T00:08:14;11.85;;;7.63;;
37945;SDS011;23769;52.478;13.448;2022-10-17T00:10:41;11.00;;;7.53;;
37945;SDS011;23769;52.478;13.448;2022-10-17T00:13:10;10.18;;;7.82;;
37945;SDS011;23769;52.478;13.448;2022-10-17T00:15:37;9.85;;;7.70;;
37945;SDS011;23769;52.478;13.448;2022-10-17T00:18:04;10.40;;;6.75;;
37945;SDS011;23769;52.478;13.448;2022-10-17T00:20:33;25.52;;;16.55;;
37945;SDS011;23769;52.478;13.448;2022-10-17T00:23:00;12.02;;;7.75;;
37945;SDS011;23769;52.478;13.448;2022-10-17T00:25:27;10.52;;;7.88;;
37945;SDS011;23769;52.478;13.448;2022-10-17T00:27:54;11.15;;;8.50;;
37945;SDS011;23769;52.478;13.448;2022-10-17T00:30:23;19.52;;;11.38;;
37945;SDS011;23769;52.478;13.448;2022-10-17T00:32:50;9.88;;;6.93;;
37945;SDS011;23769;52.478;13.448;2022-10-17T00:35:17;13.40;;;8.23;;
37945;SDS011;23769;52.478;13.448;2022-10-17T00:37:44;16.52;;;9.82;;
37945;SDS011;23769;52.478;13.448;2022-10-17T00:40:11;18.40;;;11.18;;
37945;SDS011;23769;52.478;13.448;2022-10-17T00:42:38;16.77;;;9.98;;
37945;SDS011;23769;52.478;13.448;2022-10-17T00:45:09;12.18;;;7.82;;
37945;SDS011;23769;52.478;13.448;2022-10-17T00:47:39;10.45;;;7.22;;
37945;SDS011;23769;52.478;13.448;2022-10-17T00:50:07;9.90;;;7.45;;
37945;SDS011;23769;52.478;13.448;2022-10-17T00:52:34;9.60;;;6.72;;
37945;SDS011;23769;52.478;13.448;2022-10-17T00:55:02;8.80;;;6.78;;
37945;SDS011;23769;52.478;13.448;2022-10-17T00:57:31;9.55;;;7.03;;
37945;SDS011;23769;52.478;13.448;2022-10-17T00:59:59;11.68;;;6.70;;
37945;SDS011;23769;52.478;13.448;2022-10-17T01:02:26;9.82;;;6.45;;
37945;SDS011;23769;52.478;13.448;2022-10-17T01:04:55;8.95;;;6.55;;
37945;SDS011;23769;52.478;13.448;2022-10-17T01:07:24;7.10;;;5.90;;
37945;SDS011;23769;52.478;13.448;2022-10-17T01:09:52;9.32;;;6.00;;
37945;SDS011;23769;52.478;13.448;2022-10-17T01:12:20;8.98;;;6.80;;
37945;SDS011;23769;52.478;13.448;2022-10-17T01:14:50;8.02;;;5.75;;
37945;SDS011;23769;52.478;13.448;2022-10-17T01:17:19;9.20;;;5.88;;
37945;SDS011;23769;52.478;13.448;2022-10-17T01:19:57;7.40;;;5.47;;
37945;SDS011;23769;52.478;13.448;2022-10-17T01:22:26;7.82;;;5.65;;
37945;SDS011;23769;52.478;13.448;2022-10-17T01:25:01;7.30;;;5.85;;
37945;SDS011;23769;52.478;13.448;2022-10-17T01:27:36;7.60;;;5.72;;
37945;SDS011;23769;52.478;13.448;2022-10-17T01:30:11;7.70;;;5.70;;
37945;SDS011;23769;52.478;13.448;2022-10-17T01:32:46;9.25;;;4.93;;
37945;SDS011;23769;52.478;13.448;2022-10-17T01:35:16;6.30;;;5.07;;
37945;SDS011;23769;52.478;13.448;2022-10-17T01:37:47;7.38;;;5.78;;
37945;SDS011;23769;52.478;13.448;2022-10-17T01:40:19;9.45;;;5.70;;
37945;SDS011;23769;52.478;13.448;2022-10-17T01:42:47;7.75;;;6.13;;
37945;SDS011;23769;52.478;13.448;2022-10-17T01:45:18;7.03;;;5.75;;
37945;SDS011;23769;52.478;13.448;2022-10-17T01:47:48;7.53;;;5.32;;
37945;SDS011;23769;52.478;13.448;2022-10-17T01:50:17;7.38;;;6.00;;
37945;SDS011;23769;52.478;13.448;2022-10-17T01:52:46;6.30;;;5.10;;
37945;SDS011;23769;52.478;13.448;2022-10-17T01:55:15;7.35;;;4.90;;
37945;SDS011;23769;52.478;13.448;2022-10-17T01:57:45;7.88;;;5.78;;
37945;SDS011;23769;52.478;13.448;2022-10-17T02:00:14;8.82;;;5.22;;
37945;SDS011;23769;52.478;13.448;2022-10-17T02:02:43;6.45;;;5.35;;
37945;SDS011;23769;52.478;13.448;2022-10-17T02:05:13;6.85;;;5.55;;
37945;SDS011;23769;52.478;13.448;2022-10-17T02:07:41;6.65;;;5.63;;
37945;SDS011;23769;52.478;13.448;2022-10-17T02:10:09;6.40;;;5.35;;
37945;SDS011;23769;52.478;13.448;2022-10-17T02:12:44;8.43;;;5.57;;
37945;SDS011;23769;52.478;13.448;2022-10-17T02:15:19;8.52;;;6.68;;
37945;SDS011;23769;52.478;13.448;2022-10-17T02:17:55;10.57;;;8.30;;
37945;SDS011;23769;52.478;13.448;2022-10-17T02:20:25;8.82;;;5.90;;
37945;SDS011;23769;52.478;13.448;2022-10-17T02:22:55;6.55;;;5.32;;
37945;SDS011;23769;52.478;13.448;2022-10-17T02:25:29;8.20;;;5.75;;
37945;SDS011;23769;52.478;13.448;2022-10-17T02:28:03;5.90;;;4.72;;
37945;SDS011;23769;52.478;13.448;2022-10-17T02:30:33;7.38;;;5.78;;
37945;SDS011;23769;52.478;13.448;2022-10-17T02:33:02;7.95;;;5.93;;
37945;SDS011;23769;52.478;13.448;2022-10-17T02:35:34;7.53;;;5.40;;
37945;SDS011;23769;52.478;13.448;2022-10-17T02:38:01;8.20;;;5.75;;
37945;SDS011;23769;52.478;13.448;2022-10-17T02:40:29;7.45;;;5.03;;
37945;SDS011;23769;52.478;13.448;2022-10-17T02:42:57;8.02;;;5.30;;
37945;SDS011;23769;52.478;13.448;2022-10-17T02:45:25;7.57;;;5.15;;
37945;SDS011;23769;52.478;13.448;2022-10-17T02:47:54;7.00;;;5.45;;
37945;SDS011;23769;52.478;13.448;2022-10-17T02:50:22;6.45;;;5.00;;
37945;SDS011;23769;52.478;13.448;2022-10-17T02:52:56;7.82;;;5.32;;
37945;SDS011;23769;52.478;13.448;2022-10-17T02:55:24;9.30;;;5.25;;
37945;SDS011;23769;52.478;13.448;2022-10-17T02:57:55;10.15;;;5.80;;
37945;SDS011;23769;52.478;13.448;2022-10-17T03:00:24;6.75;;;4.90;;
37945;SDS011;23769;52.478;13.448;2022-10-17T03:02:52;7.15;;;5.70;;
37945;SDS011;23769;52.478;13.448;2022-10-17T03:05:20;6.30;;;5.25;;
37945;SDS011;23769;52.478;13.448;2022-10-17T03:07:47;7.82;;;6.35;;
37945;SDS011;23769;52.478;13.448;2022-10-17T03:10:16;7.18;;;6.15;;
37945;SDS011;23769;52.478;13.448;2022-10-17T03:12:43;7.47;;;5.57;;
37945;SDS011;23769;52.478;13.448;2022-10-17T03:15:10;8.60;;;6.25;;
37945;SDS011;23769;52.478;13.448;2022-10-17T03:17:38;6.32;;;5.25;;
37945;SDS011;23769;52.478;13.448;2022-10-17T03:20:05;7.80;;;5.55;;
37945;SDS011;23769;52.478;13.448;2022-10-17T03:22:32;8.07;;;5.57;;
37945;SDS011;23769;52.478;13.448;2022-10-17T03:24:59;9.43;;;6.47;;
37945;SDS011;23769;52.478;13.448;2022-10-17T03:27:28;5.65;;;5.03;;
37945;SDS011;23769;52.478;13.448;2022-10-17T03:29:55;11.90;;;6.38;;
37945;SDS011;23769;52.478;13.448;2022-10-17T03:32:22;5.93;;;5.28;;
37945;SDS011;23769;52.478;13.448;2022-10-17T03:34:49;7.47;;;5.65;;
37945;SDS011;23769;52.478;13.448;2022-10-17T03:37:16;5.63;;;5.10;;
37945;SDS011;23769;52.478;13.448;2022-10-17T03:39:43;6.68;;;5.20;;
37945;SDS011;23769;52.478;13.448;2022-10-17T03:42:10;7.10;;;5.57;;
37945;SDS011;23769;52.478;13.448;2022-10-17T03:44:38;6.32;;;5.32;;
37945;SDS011;23769;52.478;13.448;2022-10-17T03:47:05;6.63;;;5.25;;
37945;SDS011;23769;52.478;13.448;2022-10-17T03:49:32;5.93;;;5.07;;
37945;SDS011;23769;52.478;13.448;2022-10-17T03:51:59;6.63;;;5.45;;
37945;SDS011;23769;52.478;13.448;2022-10-17T03:54:27;7.15;;;5.75;;
37945;SDS011;23769;52.478;13.448;2022-10-17T03:56:54;7.47;;;5.95;;
37945;SDS011;23769;52.478;13.448;2022-10-17T03:59:21;5.90;;;5.30;;
37945;SDS011;23769;52.478;13.448;2022-10-17T04:01:49;9.43;;;6.43;;
37945;SDS011;23769;52.478;13.448;2022-10-17T04:04:16;7.63;;;6.82;;
37945;SDS011;23769;52.478;13.448;2022-10-17T04:06:43;8.43;;;6.70;;
37945;SDS011;23769;52.478;13.448;2022-10-17T04:09:10;6.60;;;5.88;;
37945;SDS011;23769;52.478;13.448;2022-10-17T04:11:37;9.02;;;6.75;;
37945;SDS011;23769;52.478;13.448;2022-10-17T04:14:05;6.30;;;5.53;;
37945;SDS011;23769;52.478;13.448;2022-10-17T04:16:32;8.82;;;6.15;;
37945;SDS011;23769;52.478;13.448;2022-10-17T04:19:00;6.63;;;5.75;;
37945;SDS011;23769;52.478;13.448;2022-10-17T04:21:28;6.40;;;5.80;;
37945;SDS011;23769;52.478;13.448;2022-10-17T04:23:55;8.15;;;7.22;;
37945;SDS011;23769;52.478;13.448;2022-10-17T04:26:23;8.57;;;6.80;;
37945;SDS011;23769;52.478;13.448;2022-10-17T04:28:50;8.93;;;6.82;;
37945;SDS011;23769;52.478;13.448;2022-10-17T04:31:17;9.93;;;7.13;;
37945;SDS011;23769;52.478;13.448;2022-10-17T04:33:45;7.65;;;6.25;;
37945;SDS011;23769;52.478;13.448;2022-10-17T04:36:15;7.97;;;6.75;;
37945;SDS011;23769;52.478;13.448;2022-10-17T04:38:42;8.95;;;6.78;;
37945;SDS011;23769;52.478;13.448;2022-10-17T04:41:10;9.73;;;7.80;;
37945;SDS011;23769;52.478;13.448;2022-10-17T04:43:37;9.35;;;7.20;;
37945;SDS011;23769;52.478;13.448;2022-10-17T04:46:05;10.07;;;7.53;;
37945;SDS011;23769;52.478;13.448;2022-10-17T04:48:32;8.10;;;7.00;;
37945;SDS011;23769;52.478;13.448;2022-10-17T04:51:00;7.55;;;6.85;;
37945;SDS011;23769;52.478;13.448;2022-10-17T04:53:30;9.25;;;8.07;;
37945;SDS011;23769;52.478;13.448;2022-10-17T04:55:58;11.30;;;8.77;;
37945;SDS011;23769;52.478;13.448;2022-10-17T04:58:26;9.82;;;7.63;;
37945;SDS011;23769;52.478;13.448;2022-10-17T05:00:54;8.18;;;7.35;;
37945;SDS011;23769;52.478;13.448;2022-10-17T05:03:21;9.48;;;8.32;;
37945;SDS011;23769;52.478;13.448;2022-10-17T05:05:48;9.52;;;8.57;;
37945;SDS011;23769;52.478;13.448;2022-10-17T05:08:15;8.35;;;7.20;;
37945;SDS011;23769;52.478;13.448;2022-10-17T05:10:43;8.38;;;7.55;;
37945;SDS011;23769;52.478;13.448;2022-10-17T05:13:11;13.13;;;8.25;;
37945;SDS011;23769;52.478;13.448;2022-10-17T05:15:38;10.70;;;9.23;;
37945;SDS011;23769;52.478;13.448;2022-10-17T05:18:05;12.88;;;9.63;;
37945;SDS011;23769;52.478;13.448;2022-10-17T05:20:32;10.18;;;9.00;;
37945;SDS011;23769;52.478;13.448;2022-10-17T05:23:00;13.02;;;10.20;;
37945;SDS011;23769;52.478;13.448;2022-10-17T05:25:27;9.90;;;7.22;;
37945;SDS011;23769;52.478;13.448;2022-10-17T05:27:55;9.32;;;7.20;;
37945;SDS011;23769;52.478;13.448;2022-10-17T05:30:22;11.25;;;8.95;;
37945;SDS011;23769;52.478;13.448;2022-10-17T05:32:53;9.00;;;8.07;;
37945;SDS011;23769;52.478;13.448;2022-10-17T05:35:20;10.52;;;8.05;;
37945;SDS011;23769;52.478;13.448;2022-10-17T05:37:47;9.93;;;8.13;;
37945;SDS011;23769;52.478;13.448;2022-10-17T05:40:15;10.55;;;8.45;;
37945;SDS011;23769;52.478;13.448;2022-10-17T05:42:44;9.20;;;8.20;;
37945;SDS011;23769;52.478;13.448;2022-10-17T05:45:13;9.13;;;7.97;;
37945;SDS011;23769;52.478;13.448;2022-10-17T05:47:40;8.63;;;7.25;;
37945;SDS011;23769;52.478;13.448;2022-10-17T05:50:07;11.73;;;9.20;;
37945;SDS011;23769;52.478;13.448;2022-10-17T05:52:34;10.77;;;8.55;;
37945;SDS011;23769;52.478;13.448;2022-10-17T05:55:02;10.05;;;7.78;;
37945;SDS011;23769;52.478;13.448;2022-10-17T05:57:29;10.35;;;8.02;;
37945;SDS011;23769;52.478;13.448;2022-10-17T05:59:56;13.60;;;9.10;;
37945;SDS011;23769;52.478;13.448;2022-10-17T06:02:24;13.57;;;8.65;;
37945;SDS011;23769;52.478;13.448;2022-10-17T06:04:51;9.93;;;7.18;;
37945;SDS011;23769;52.478;13.448;2022-10-17T06:07:18;9.40;;;7.20;;
37945;SDS011;23769;52.478;13.448;2022-10-17T06:09:46;9.10;;;7.55;;
37945;SDS011;23769;52.478;13.448;2022-10-17T06:12:13;9.45;;;7.30;;
37945;SDS011;23769;52.478;13.448;2022-10-17T06:14:40;7.68;;;6.50;;
37945;SDS011;23769;52.478;13.448;2022-10-17T06:17:07;8.23;;;7.38;;
37945;SDS011;23769;52.478;13.448;2022-10-17T06:19:35;10.73;;;7.75;;
37945;SDS011;23769;52.478;13.448;2022-10-17T06:22:03;8.32;;;6.50;;
37945;SDS011;23769;52.478;13.448;2022-10-17T06:24:30;10.30;;;7.53;;
37945;SDS011;23769;52.478;13.448;2022-10-17T06:26:57;9.80;;;7.28;;
37945;SDS011;23769;52.478;13.448;2022-10-17T06:29:24;7.18;;;6.03;;
37945;SDS011;23769;52.478;13.448;2022-10-17T06:31:52;9.80;;;7.00;;
37945;SDS011;23769;52.478;13.448;2022-10-17T06:34:19;7.95;;;6.63;;
37945;SDS011;23769;52.478;13.448;2022-10-17T06:36:47;8.02;;;6.20;;
37945;SDS011;23769;52.478;13.448;2022-10-17T06:39:14;12.38;;;7.32;;
37945;SDS011;23769;52.478;13.448;2022-10-17T06:41:42;11.05;;;6.70;;
37945;SDS011;23769;52.478;13.448;2022-10-17T06:44:09;10.82;;;5.97;;
37945;SDS011;23769;52.478;13.448;2022-10-17T06:46:36;9.90;;;5.75;;
37945;SDS011;23769;52.478;13.448;2022-10-17T06:49:04;8.43;;;6.07;;
37945;SDS011;23769;52.478;13.448;2022-10-17T06:51:33;7.60;;;5.63;;
37945;SDS011;23769;52.478;13.448;2022-10-17T06:54:02;10.57;;;5.35;;
37945;SDS011;23769;52.478;13.448;2022-10-17T06:56:29;7.22;;;5.63;;
37945;SDS011;23769;52.478;13.448;2022-10-17T06:58:56;7.38;;;5.53;;
37945;SDS011;23769;52.478;13.448;2022-10-17T07:01:24;5.75;;;4.90;;
37945;SDS011;23769;52.478;13.448;2022-10-17T07:03:52;7.20;;;4.97;;
37945;SDS011;23769;52.478;13.448;2022-10-17T07:06:19;9.07;;;5.38;;
37945;SDS011;23769;52.478;13.448;2022-10-17T07:08:48;7.18;;;4.82;;
37945;SDS011;23769;52.478;13.448;2022-10-17T07:11:17;6.90;;;4.93;;
37945;SDS011;23769;52.478;13.448;2022-10-17T07:13:45;8.13;;;4.95;;
37945;SDS011;23769;52.478;13.448;2022-10-17T07:16:13;8.10;;;5.38;;
37945;SDS011;23769;52.478;13.448;2022-10-17T07:18:40;9.00;;;5.70;;
37945;SDS011;23769;52.478;13.448;2022-10-17T07:21:08;7.88;;;5.45;;
37945;SDS011;23769;52.478;13.448;2022-10-17T07:23:35;7.95;;;5.10;;
37945;SDS011;23769;52.478;13.448;2022-10-17T07:26:05;9.77;;;6.38;;
37945;SDS011;23769;52.478;13.448;2022-10-17T07:28:33;6.57;;;4.50;;
37945;SDS011;23769;52.478;13.448;2022-10-17T07:31:04;8.00;;;5.40;;
37945;SDS011;23769;52.478;13.448;2022-10-17T07:33:31;8.85;;;5.65;;
37945;SDS011;23769;52.478;13.448;2022-10-17T07:35:58;7.88;;;4.97;;
37945;SDS011;23769;52.478;13.448;2022-10-17T07:38:26;7.70;;;5.68;;
37945;SDS011;23769;52.478;13.448;2022-10-17T07:40:54;8.85;;;6.97;;
37945;SDS011;23769;52.478;13.448;2022-10-17T07:43:21;8.75;;;5.88;;
37945;SDS011;23769;52.478;13.448;2022-10-17T07:45:50;12.15;;;5.85;;
37945;SDS011;23769;52.478;13.448;2022-10-17T07:48:18;8.82;;;5.15;;
37945;SDS011;23769;52.478;13.448;2022-10-17T07:50:45;7.07;;;5.35;;
37945;SDS011;23769;52.478;13.448;2022-10-17T07:53:12;8.07;;;4.72;;
37945;SDS011;23769;52.478;13.448;2022-10-17T07:55:39;9.48;;;6.50;;
37945;SDS011;23769;52.478;13.448;2022-10-17T07:58:07;7.20;;;4.78;;
37945;SDS011;23769;52.478;13.448;2022-10-17T08:00:35;9.23;;;4.35;;
37945;SDS011;23769;52.478;13.448;2022-10-17T08:03:03;7.65;;;4.45;;
37945;SDS011;23769;52.478;13.448;2022-10-17T08:05:31;8.65;;;4.65;;
37945;SDS011;23769;52.478;13.448;2022-10-17T08:07:58;7.50;;;4.53;;
37945;SDS011;23769;52.478;13.448;2022-10-17T08:10:27;6.00;;;4.45;;
37945;SDS011;23769;52.478;13.448;2022-10-17T08:12:55;8.77;;;3.80;;
37945;SDS011;23769;52.478;13.448;2022-10-17T08:15:22;6.47;;;3.72;;
37945;SDS011;23769;52.478;13.448;2022-10-17T08:17:49;5.43;;;3.85;;
37945;SDS011;23769;52.478;13.448;2022-10-17T08:20:21;6.78;;;4.43;;
37945;SDS011;23769;52.478;13.448;2022-10-17T08:22:51;6.05;;;4.10;;
37945;SDS011;23769;52.478;13.448;2022-10-17T08:25:18;6.35;;;4.55;;
37945;SDS011;23769;52.478;13.448;2022-10-17T08:27:45;9.27;;;3.90;;
37945;SDS011;23769;52.478;13.448;2022-10-17T08:30:12;7.35;;;4.18;;
37945;SDS011;23769;52.478;13.448;2022-10-17T08:32:40;5.43;;;4.00;;
37945;SDS011;23769;52.478;13.448;2022-10-17T08:35:07;7.00;;;4.00;;
37945;SDS011;23769;52.478;13.448;2022-10-17T08:37:36;6.18;;;3.78;;
37945;SDS011;23769;52.478;13.448;2022-10-17T08:40:03;7.53;;;3.63;;
37945;SDS011;23769;52.478;13.448;2022-10-17T08:42:41;6.50;;;3.90;;
37945;SDS011;23769;52.478;13.448;2022-10-17T08:45:14;6.80;;;4.25;;
37945;SDS011;23769;52.478;13.448;2022-10-17T08:47:43;5.88;;;4.13;;
37945;SDS011;23769;52.478;13.448;2022-10-17T08:50:11;7.97;;;3.80;;
37945;SDS011;23769;52.478;13.448;2022-10-17T08:52:43;8.27;;;5.00;;
37945;SDS011;23769;52.478;13.448;2022-10-17T08:55:15;3.58;;;3.03;;
37945;SDS011;23769;52.478;13.448;2022-10-17T08:57:43;4.35;;;3.35;;
37945;SDS011;23769;52.478;13.448;2022-10-17T09:00:12;6.53;;;3.22;;
37945;SDS011;23769;52.478;13.448;2022-10-17T09:02:43;5.57;;;3.47;;
37945;SDS011;23769;52.478;13.448;2022-10-17T09:08:00;6.15;;;3.75;;
37945;SDS011;23769;52.478;13.448;2022-10-17T09:12:59;6.82;;;3.38;;
37945;SDS011;23769;52.478;13.448;2022-10-17T09:15:44;6.15;;;3.10;;
37945;SDS011;23769;52.478;13.448;2022-10-17T09:18:17;7.72;;;3.60;;
37945;SDS011;23769;52.478;13.448;2022-10-17T09:20:48;7.10;;;3.10;;
37945;SDS011;23769;52.478;13.448;2022-10-17T09:23:19;5.90;;;3.15;;
37945;SDS011;23769;52.478;13.448;2022-10-17T09:25:48;4.68;;;3.50;;
37945;SDS011;23769;52.478;13.448;2022-10-17T09:28:16;4.57;;;2.70;;
37945;SDS011;23769;52.478;13.448;2022-10-17T09:30:45;5.05;;;3.30;;
37945;SDS011;23769;52.478;13.448;2022-10-17T09:33:13;6.30;;;2.80;;
37945;SDS011;23769;52.478;13.448;2022-10-17T09:35:41;6.22;;;3.22;;
37945;SDS011;23769;52.478;13.448;2022-10-17T09:38:12;8.45;;;2.55;;
37945;SDS011;23769;52.478;13.448;2022-10-17T09:40:43;4.38;;;2.70;;
37945;SDS011;23769;52.478;13.448;2022-10-17T09:43:11;3.92;;;2.70;;
37945;SDS011;23769;52.478;13.448;2022-10-17T09:45:42;4.15;;;2.60;;
37945;SDS011;23769;52.478;13.448;2022-10-17T09:48:14;8.60;;;2.80;;
37945;SDS011;23769;52.478;13.448;2022-10-17T09:50:44;8.13;;;3.17;;
37945;SDS011;23769;52.478;13.448;2022-10-17T09:53:12;3.55;;;2.50;;
37945;SDS011;23769;52.478;13.448;2022-10-17T09:55:41;5.63;;;2.90;;
37945;SDS011;23769;52.478;13.448;2022-10-17T09:58:10;4.57;;;3.00;;
37945;SDS011;23769;52.478;13.448;2022-10-17T10:00:38;4.75;;;2.35;;
37945;SDS011;23769;52.478;13.448;2022-10-17T10:03:09;5.50;;;2.50;;
37945;SDS011;23769;52.478;13.448;2022-10-17T10:05:37;5.00;;;2.70;;
37945;SDS011;23769;52.478;13.448;2022-10-17T10:08:05;4.47;;;3.00;;
37945;SDS011;23769;52.478;13.448;2022-10-17T10:10:38;7.65;;;3.38;;
37945;SDS011;23769;52.478;13.448;2022-10-17T10:13:15;6.75;;;3.70;;
37945;SDS011;23769;52.478;13.448;2022-10-17T10:15:44;5.25;;;3.08;;
37945;SDS011;23769;52.478;13.448;2022-10-17T10:18:25;4.85;;;2.97;;
37945;SDS011;23769;52.478;13.448;2022-10-17T10:21:01;6.13;;;2.70;;
37945;SDS011;23769;52.478;13.448;2022-10-17T10:23:29;5.78;;;2.47;;
37945;SDS011;23769;52.478;13.448;2022-10-17T10:25:57;4.05;;;2.30;;
37945;SDS011;23769;52.478;13.448;2022-10-17T10:28:26;4.40;;;2.95;;
37945;SDS011;23769;52.478;13.448;2022-10-17T10:30:54;6.13;;;2.78;;
37945;SDS011;23769;52.478;13.448;2022-10-17T10:33:22;7.55;;;3.20;;
37945;SDS011;23769;52.478;13.448;2022-10-17T10:35:52;6.18;;;2.10;;
37945;SDS011;23769;52.478;13.448;2022-10-17T10:38:20;6.15;;;4.40;;
37945;SDS011;23769;52.478;13.448;2022-10-17T10:40:47;7.35;;;3.28;;
37945;SDS011;23769;52.478;13.448;2022-10-17T10:43:19;3.78;;;2.72;;
37945;SDS011;23769;52.478;13.448;2022-10-17T10:45:48;8.80;;;2.95;;
37945;SDS011;23769;52.478;13.448;2022-10-17T10:48:18;8.38;;;3.78;;
37945;SDS011;23769;52.478;13.448;2022-10-17T10:50:47;5.80;;;2.97;;
37945;SDS011;23769;52.478;13.448;2022-10-17T10:53:21;5.18;;;2.90;;
37945;SDS011;23769;52.478;13.448;2022-10-17T10:55:52;5.18;;;2.78;;
37945;SDS011;23769;52.478;13.448;2022-10-17T10:58:23;4.03;;;2.60;;
37945;SDS011;23769;52.478;13.448;2022-10-17T11:00:53;5.57;;;2.92;;
37945;SDS011;23769;52.478;13.448;2022-10-17T11:03:22;2.45;;;1.85;;
37945;SDS011;23769;52.478;13.448;2022-10-17T11:05:53;5.03;;;2.63;;
37945;SDS011;23769;52.478;13.448;2022-10-17T11:08:22;4.45;;;2.13;;
37945;SDS011;23769;52.478;13.448;2022-10-17T11:10:56;4.28;;;2.50;;
37945;SDS011;23769;52.478;13.448;2022-10-17T11:13:26;3.60;;;2.47;;
37945;SDS011;23769;52.478;13.448;2022-10-17T11:15:58;5.20;;;2.90;;
37945;SDS011;23769;52.478;13.448;2022-10-17T11:18:31;3.25;;;2.47;;
37945;SDS011;23769;52.478;13.448;2022-10-17T11:21:00;5.50;;;2.20;;
37945;SDS011;23769;52.478;13.448;2022-10-17T11:23:30;4.60;;;2.88;;
37945;SDS011;23769;52.478;13.448;2022-10-17T11:26:00;8.57;;;2.88;;
37945;SDS011;23769;52.478;13.448;2022-10-17T11:28:28;4.72;;;2.90;;
37945;SDS011;23769;52.478;13.448;2022-10-17T11:30:58;5.05;;;2.80;;
37945;SDS011;23769;52.478;13.448;2022-10-17T11:33:27;5.45;;;2.75;;
37945;SDS011;23769;52.478;13.448;2022-10-17T11:35:56;5.35;;;2.60;;
37945;SDS011;23769;52.478;13.448;2022-10-17T11:38:27;4.22;;;2.55;;
37945;SDS011;23769;52.478;13.448;2022-10-17T11:40:56;6.30;;;2.67;;
37945;SDS011;23769;52.478;13.448;2022-10-17T11:43:26;4.68;;;2.65;;
37945;SDS011;23769;52.478;13.448;2022-10-17T11:45:57;5.13;;;3.15;;
37945;SDS011;23769;52.478;13.448;2022-10-17T11:48:27;4.90;;;3.13;;
37945;SDS011;23769;52.478;13.448;2022-10-17T11:50:59;5.60;;;3.03;;
37945;SDS011;23769;52.478;13.448;2022-10-17T11:53:27;4.22;;;2.50;;
37945;SDS011;23769;52.478;13.448;2022-10-17T11:55:57;3.83;;;3.05;;
37945;SDS011;23769;52.478;13.448;2022-10-17T11:58:27;6.68;;;3.25;;
37945;SDS011;23769;52.478;13.448;2022-10-17T12:01:01;4.53;;;2.58;;
37945;SDS011;23769;52.478;13.448;2022-10-17T12:03:33;7.30;;;2.60;;
37945;SDS011;23769;52.478;13.448;2022-10-17T12:06:08;9.30;;;3.78;;
37945;SDS011;23769;52.478;13.448;2022-10-17T12:08:39;5.53;;;3.05;;
37945;SDS011;23769;52.478;13.448;2022-10-17T12:11:10;5.93;;;2.65;;
37945;SDS011;23769;52.478;13.448;2022-10-17T12:13:48;7.43;;;3.55;;
37945;SDS011;23769;52.478;13.448;2022-10-17T12:19:22;6.18;;;3.38;;
37945;SDS011;23769;52.478;13.448;2022-10-17T12:24:39;5.78;;;3.40;;
37945;SDS011;23769;52.478;13.448;2022-10-17T12:29:56;6.72;;;3.47;;
37945;SDS011;23769;52.478;13.448;2022-10-17T12:32:24;4.38;;;2.90;;
37945;SDS011;23769;52.478;13.448;2022-10-17T12:34:53;6.05;;;3.15;;
37945;SDS011;23769;52.478;13.448;2022-10-17T12:43:31;5.22;;;3.03;;
37945;SDS011;23769;52.478;13.448;2022-10-17T12:45:58;5.57;;;3.33;;
37945;SDS011;23769;52.478;13.448;2022-10-17T12:51:12;7.50;;;3.55;;
37945;SDS011;23769;52.478;13.448;2022-10-17T12:53:43;5.72;;;3.00;;
37945;SDS011;23769;52.478;13.448;2022-10-17T12:56:13;4.20;;;2.80;;
37945;SDS011;23769;52.478;13.448;2022-10-17T12:58:41;6.25;;;3.20;;
37945;SDS011;23769;52.478;13.448;2022-10-17T13:01:08;7.28;;;3.38;;
37945;SDS011;23769;52.478;13.448;2022-10-17T13:03:41;5.50;;;3.20;;
37945;SDS011;23769;52.478;13.448;2022-10-17T13:06:14;5.70;;;3.65;;
37945;SDS011;23769;52.478;13.448;2022-10-17T13:08:43;6.60;;;3.70;;
37945;SDS011;23769;52.478;13.448;2022-10-17T13:11:13;6.57;;;3.38;;
37945;SDS011;23769;52.478;13.448;2022-10-17T13:13:40;6.13;;;2.90;;
37945;SDS011;23769;52.478;13.448;2022-10-17T13:16:08;10.80;;;4.75;;
37945;SDS011;23769;52.478;13.448;2022-10-17T13:18:52;5.72;;;3.33;;
37945;SDS011;23769;52.478;13.448;2022-10-17T13:21:22;8.40;;;4.13;;
37945;SDS011;23769;52.478;13.448;2022-10-17T13:23:50;7.80;;;3.47;;
37945;SDS011;23769;52.478;13.448;2022-10-17T13:26:18;5.35;;;2.88;;
37945;SDS011;23769;52.478;13.448;2022-10-17T13:28:58;9.50;;;3.72;;
37945;SDS011;23769;52.478;13.448;2022-10-17T13:31:27;6.10;;;3.00;;
37945;SDS011;23769;52.478;13.448;2022-10-17T13:33:55;5.93;;;2.70;;
37945;SDS011;23769;52.478;13.448;2022-10-17T13:36:24;5.68;;;3.17;;
37945;SDS011;23769;52.478;13.448;2022-10-17T13:38:51;8.55;;;4.70;;
37945;SDS011;23769;52.478;13.448;2022-10-17T13:41:21;5.97;;;3.40;;
37945;SDS011;23769;52.478;13.448;2022-10-17T13:43:50;6.85;;;3.00;;
37945;SDS011;23769;52.478;13.448;2022-10-17T13:46:21;7.88;;;2.90;;
37945;SDS011;23769;52.478;13.448;2022-10-17T13:48:50;4.10;;;2.80;;
37945;SDS011;23769;52.478;13.448;2022-10-17T13:51:17;5.20;;;3.25;;
37945;SDS011;23769;52.478;13.448;2022-10-17T13:53:46;4.25;;;3.05;;
37945;SDS011;23769;52.478;13.448;2022-10-17T13:56:17;6.03;;;3.42;;
37945;SDS011;23769;52.478;13.448;2022-10-17T13:58:45;7.50;;;3.10;;
37945;SDS011;23769;52.478;13.448;2022-10-17T14:01:13;8.10;;;2.92;;
37945;SDS011;23769;52.478;13.448;2022-10-17T14:03:40;4.68;;;3.00;;
37945;SDS011;23769;52.478;13.448;2022-10-17T14:06:15;5.07;;;2.80;;
37945;SDS011;23769;52.478;13.448;2022-10-17T14:08:48;7.57;;;3.90;;
37945;SDS011;23769;52.478;13.448;2022-10-17T14:11:18;4.53;;;2.80;;
37945;SDS011;23769;52.478;13.448;2022-10-17T14:13:47;4.80;;;3.05;;
37945;SDS011;23769;52.478;13.448;2022-10-17T14:16:15;9.10;;;3.30;;
37945;SDS011;23769;52.478;13.448;2022-10-17T14:18:44;11.23;;;3.40;;
37945;SDS011;23769;52.478;13.448;2022-10-17T14:21:16;5.93;;;3.20;;
37945;SDS011;23769;52.478;13.448;2022-10-17T14:23:44;6.75;;;3.30;;
37945;SDS011;23769;52.478;13.448;2022-10-17T14:26:13;4.13;;;2.85;;
37945;SDS011;23769;52.478;13.448;2022-10-17T14:28:42;7.43;;;2.28;;
37945;SDS011;23769;52.478;13.448;2022-10-17T14:33:52;4.83;;;2.43;;
37945;SDS011;23769;52.478;13.448;2022-10-17T14:36:20;2.95;;;2.17;;
37945;SDS011;23769;52.478;13.448;2022-10-17T14:38:55;6.68;;;3.08;;
37945;SDS011;23769;52.478;13.448;2022-10-17T14:41:24;5.22;;;2.33;;
37945;SDS011;23769;52.478;13.448;2022-10-17T14:43:53;4.93;;;3.42;;
37945;SDS011;23769;52.478;13.448;2022-10-17T14:46:20;4.07;;;3.30;;
37945;SDS011;23769;52.478;13.448;2022-10-17T14:48:50;6.65;;;3.58;;
37945;SDS011;23769;52.478;13.448;2022-10-17T14:51:18;10.88;;;5.55;;
37945;SDS011;23769;52.478;13.448;2022-10-17T14:53:58;6.38;;;4.10;;
37945;SDS011;23769;52.478;13.448;2022-10-17T14:56:27;7.70;;;4.68;;
37945;SDS011;23769;52.478;13.448;2022-10-17T14:58:59;6.80;;;3.40;;
37945;SDS011;23769;52.478;13.448;2022-10-17T15:01:27;7.63;;;3.05;;
37945;SDS011;23769;52.478;13.448;2022-10-17T15:03:54;4.38;;;3.33;;
37945;SDS011;23769;52.478;13.448;2022-10-17T15:06:21;7.10;;;4.72;;
37945;SDS011;23769;52.478;13.448;2022-10-17T15:08:49;12.48;;;4.40;;